Time;durP1;ratioP1;P1;durP2;ratioP2;P2;SDS_P1;SDS_P2;PMS_P1;PMS_P2;Temp;Humidity;BMP_temperature;BMP_pressure;BME280_temperature;BME280_humidity;BME280_pressure;Samples;Min_cycle;Max_cycle;Signal;HPM_P1;HPM_P2
2023/01/12 00:02:06;;;;;;;;;;;8.60;99.90;;;;;;4986872;28;20322;-69
2023/01/12 00:04:33;;;;;;;;;;;8.60;99.90;;;;;;4987111;28;20036;-70
2023/01/12 00:07:00;;;;;;;;;;;8.70;99.90;;;;;;4989121;28;20023;-67
2023/01/12 00:09:28;;;;;;;;;;;8.60;99.90;;;;;;4985845;28;19965;-69
2023/01/12 00:11:54;;;;;;;;;;;8.60;99.90;;;;;;4985266;28;19969;-68
2023/01/12 00:14:21;;;;;;;;;;;8.70;99.90;;;;;;4987153;28;19979;-69
2023/01/12 00:16:48;;;;;;;;;;;8.60;99.90;;;;;;4985583;28;19926;-68
2023/01/12 00:19:15;;;;;;;;;;;8.60;99.90;;;;;;4985196;28;20016;-69
2023/01/12 00:21:55;;;;;;;;;;;8.60;99.90;;;;;;4988606;28;19925;-69
2023/01/12 00:24:25;;;;;;;;;;;8.60;99.90;;;;;;4991206;28;19949;-69
2023/01/12 00:26:53;;;;;;;;;;;8.60;99.90;;;;;;4989365;28;19926;-69
2023/01/12 00:29:21;;;;;;;;;;;8.60;99.90;;;;;;4993554;28;19969;-69
2023/01/12 00:31:47;;;;;;;;;;;8.60;99.90;;;;;;4990743;28;19929;-69
2023/01/12 00:34:14;;;;;;;;;;;8.60;99.90;;;;;;4990073;28;19940;-69
2023/01/12 00:36:41;;;;;;;;;;;8.60;99.90;;;;;;4990664;28;20013;-68
2023/01/12 00:39:08;;;;;;;;;;;8.60;99.90;;;;;;4991787;28;19977;-70
2023/01/12 00:47:07;;;;;;;;;;;8.60;99.90;;;;;;4989899;28;20007;-69
2023/01/12 00:49:33;;;;;;;;;;;8.60;99.90;;;;;;4992003;28;19934;-69
2023/01/12 00:52:00;;;;;;;;;;;8.60;99.90;;;;;;5001971;28;19926;-69
2023/01/12 00:54:27;;;;;;;;;;;8.60;99.90;;;;;;4990187;28;19958;-69
2023/01/12 00:56:53;;;;;;;;;;;8.70;99.90;;;;;;4989505;28;19934;-69
2023/01/12 00:59:21;;;;;;;;;;;8.80;99.90;;;;;;4989677;28;20396;-69
2023/01/12 01:01:48;;;;;;;;;;;8.80;99.90;;;;;;4998729;28;20384;-70
2023/01/12 01:04:15;;;;;;;;;;;8.80;99.90;;;;;;4986423;28;19933;-69
2023/01/12 01:06:41;;;;;;;;;;;8.80;99.90;;;;;;4989440;28;20009;-69
2023/01/12 01:09:08;;;;;;;;;;;8.80;99.90;;;;;;4990168;28;19932;-69
2023/01/12 01:11:35;;;;;;;;;;;8.80;99.90;;;;;;4999119;28;20028;-69
2023/01/12 01:14:02;;;;;;;;;;;8.80;99.90;;;;;;4989767;28;19932;-68
2023/01/12 01:16:30;;;;;;;;;;;8.80;99.90;;;;;;4984829;28;20337;-68
2023/01/12 01:18:57;;;;;;;;;;;8.80;99.90;;;;;;4989941;28;19932;-68
2023/01/12 01:21:24;;;;;;;;;;;8.80;99.90;;;;;;4999560;28;20056;-68
2023/01/12 01:23:51;;;;;;;;;;;8.80;99.90;;;;;;4990629;28;19932;-68
2023/01/12 01:26:19;;;;;;;;;;;8.90;99.90;;;;;;4986521;28;19932;-69
2023/01/12 01:28:45;;;;;;;;;;;8.80;99.90;;;;;;4989638;28;19926;-69
2023/01/12 01:31:13;;;;;;;;;;;8.80;99.90;;;;;;5014789;28;20637;-68
2023/01/12 01:33:42;;;;;;;;;;;8.90;99.90;;;;;;4998031;28;19925;-68
2023/01/12 01:36:08;;;;;;;;;;;8.90;99.90;;;;;;4988528;28;19926;-68
2023/01/12 01:38:36;;;;;;;;;;;8.90;99.90;;;;;;4991472;28;19926;-68
2023/01/12 01:41:02;;;;;;;;;;;9.00;99.90;;;;;;4984965;28;19933;-68
2023/01/12 01:43:46;;;;;;;;;;;9.00;99.90;;;;;;4997498;28;19925;-68
2023/01/12 01:46:14;;;;;;;;;;;9.00;99.90;;;;;;4990951;28;20304;-69
2023/01/12 01:48:43;;;;;;;;;;;9.00;99.90;;;;;;4990584;28;19926;-69
2023/01/12 01:51:12;;;;;;;;;;;8.90;99.90;;;;;;4987380;28;19987;-69
2023/01/12 01:53:40;;;;;;;;;;;8.80;99.90;;;;;;4998020;28;20372;-69
2023/01/12 01:56:09;;;;;;;;;;;8.80;99.90;;;;;;4991428;28;19932;-69
2023/01/12 01:58:37;;;;;;;;;;;8.80;99.90;;;;;;4990133;28;19929;-68
2023/01/12 02:01:03;;;;;;;;;;;8.80;99.90;;;;;;4988022;28;19932;-68
2023/01/12 02:03:31;;;;;;;;;;;8.80;99.90;;;;;;4991036;28;19932;-68
2023/01/12 02:05:59;;;;;;;;;;;8.80;99.90;;;;;;4988621;28;20026;-69
2023/01/12 02:08:28;;;;;;;;;;;8.80;99.90;;;;;;4989838;28;20016;-69
2023/01/12 02:10:56;;;;;;;;;;;8.80;99.90;;;;;;4986770;28;19926;-69
2023/01/12 02:16:20;;;;;;;;;;;8.80;99.90;;;;;;4995058;28;20052;-69
2023/01/12 02:18:52;;;;;;;;;;;8.90;99.90;;;;;;4989214;28;19925;-69
2023/01/12 02:21:34;;;;;;;;;;;8.90;99.90;;;;;;4987050;28;20299;-69
2023/01/12 02:24:10;;;;;;;;;;;8.90;99.90;;;;;;4988185;28;19926;-69
2023/01/12 02:27:07;;;;;;;;;;;8.90;99.90;;;;;;4987943;28;19941;-68
2023/01/12 02:29:52;;;;;;;;;;;8.80;99.90;;;;;;4986519;28;19926;-69
2023/01/12 02:32:23;;;;;;;;;;;8.90;99.90;;;;;;4987740;28;19926;-68
2023/01/12 02:34:53;;;;;;;;;;;8.80;99.90;;;;;;4987050;28;20028;-69
2023/01/12 02:37:23;;;;;;;;;;;8.80;99.90;;;;;;4989043;28;20384;-69
2023/01/12 02:39:58;;;;;;;;;;;8.80;99.90;;;;;;4986883;28;19930;-68
2023/01/12 02:42:42;;;;;;;;;;;8.80;99.90;;;;;;4988834;28;19940;-68
2023/01/12 02:45:14;;;;;;;;;;;8.70;99.90;;;;;;5004920;28;20024;-68
2023/01/12 02:47:45;;;;;;;;;;;8.80;99.90;;;;;;4989261;28;19926;-69
2023/01/12 02:50:14;;;;;;;;;;;8.80;99.90;;;;;;4986699;28;19926;-68
2023/01/12 02:52:43;;;;;;;;;;;8.80;99.90;;;;;;4988795;28;20275;-68
2023/01/12 02:55:11;;;;;;;;;;;8.80;99.90;;;;;;4987066;28;19941;-69
2023/01/12 02:57:37;;;;;;;;;;;8.80;99.90;;;;;;4989041;28;19925;-68
2023/01/12 03:00:06;;;;;;;;;;;8.80;99.90;;;;;;4986500;28;20449;-69
2023/01/12 03:02:33;;;;;;;;;;;8.80;99.90;;;;;;4984669;28;20409;-69
2023/01/12 03:05:01;;;;;;;;;;;8.80;99.90;;;;;;4990719;28;19944;-69
2023/01/12 03:07:38;;;;;;;;;;;8.90;99.90;;;;;;4989398;28;20373;-69
2023/01/12 03:10:35;;;;;;;;;;;8.90;99.90;;;;;;4988689;28;20460;-68
2023/01/12 03:13:05;;;;;;;;;;;8.80;99.90;;;;;;5030833;28;19925;-68
2023/01/12 03:15:32;;;;;;;;;;;8.80;99.90;;;;;;4996179;28;19929;-68
2023/01/12 03:18:00;;;;;;;;;;;8.80;99.90;;;;;;4989430;28;19934;-68
2023/01/12 03:20:30;;;;;;;;;;;8.80;99.90;;;;;;4988519;28;20196;-69
2023/01/12 03:22:59;;;;;;;;;;;8.80;99.90;;;;;;4997543;28;20042;-69
2023/01/12 03:25:26;;;;;;;;;;;8.80;99.90;;;;;;4987857;28;19931;-68
2023/01/12 03:27:54;;;;;;;;;;;8.80;99.90;;;;;;4987141;28;19926;-69
2023/01/12 03:30:22;;;;;;;;;;;8.80;99.90;;;;;;4986029;28;19926;-69
2023/01/12 03:32:50;;;;;;;;;;;8.80;99.90;;;;;;4997249;28;19932;-68
2023/01/12 03:35:17;;;;;;;;;;;8.80;99.90;;;;;;4987593;28;19925;-68
2023/01/12 03:37:48;;;;;;;;;;;8.80;99.90;;;;;;4989609;28;19925;-69
2023/01/12 03:40:17;;;;;;;;;;;8.80;99.90;;;;;;4987779;28;19926;-68
2023/01/12 03:42:46;;;;;;;;;;;8.80;99.90;;;;;;4996111;28;19929;-68
2023/01/12 03:45:18;;;;;;;;;;;8.90;99.90;;;;;;4986226;28;19930;-69
2023/01/12 03:47:44;;;;;;;;;;;8.90;99.90;;;;;;4986929;28;19936;-68
2023/01/12 03:50:13;;;;;;;;;;;8.90;99.90;;;;;;4985301;28;19933;-69
2023/01/12 03:52:40;;;;;;;;;;;8.90;99.90;;;;;;4987788;28;19932;-68
2023/01/12 03:55:11;;;;;;;;;;;8.80;99.90;;;;;;4986819;28;19936;-68
2023/01/12 03:57:38;;;;;;;;;;;8.80;99.90;;;;;;4990439;28;19926;-68
2023/01/12 04:00:07;;;;;;;;;;;8.80;99.90;;;;;;4988848;28;20277;-68
2023/01/12 04:02:33;;;;;;;;;;;8.70;99.90;;;;;;4990575;28;19934;-68
2023/01/12 04:05:00;;;;;;;;;;;8.70;99.90;;;;;;4989691;28;19932;-69
2023/01/12 04:07:27;;;;;;;;;;;8.70;99.90;;;;;;4989124;28;19961;-69
2023/01/12 04:09:53;;;;;;;;;;;8.70;99.90;;;;;;4990145;28;20452;-69
2023/01/12 04:12:21;;;;;;;;;;;8.70;99.90;;;;;;5002647;28;20421;-69
2023/01/12 04:14:48;;;;;;;;;;;8.70;99.90;;;;;;4996438;28;19926;-68
2023/01/12 04:17:15;;;;;;;;;;;8.70;99.90;;;;;;4991628;28;19979;-68
2023/01/12 04:19:42;;;;;;;;;;;8.70;99.90;;;;;;4990703;28;19925;-68
2023/01/12 04:24:54;;;;;;;;;;;8.70;99.90;;;;;;4990279;28;20299;-69
2023/01/12 04:27:22;;;;;;;;;;;8.70;99.90;;;;;;4990206;28;20384;-68
2023/01/12 04:29:48;;;;;;;;;;;8.70;99.90;;;;;;4989967;28;19932;-69
2023/01/12 04:32:15;;;;;;;;;;;8.70;99.90;;;;;;4992850;28;19929;-68
2023/01/12 04:34:42;;;;;;;;;;;8.70;99.90;;;;;;5006945;28;19926;-69
2023/01/12 04:37:08;;;;;;;;;;;8.70;99.90;;;;;;4992090;28;19936;-68
2023/01/12 04:39:35;;;;;;;;;;;8.60;99.90;;;;;;4991921;28;20005;-69
2023/01/12 04:42:01;;;;;;;;;;;8.60;99.90;;;;;;4987468;28;19934;-69
2023/01/12 04:44:31;;;;;;;;;;;8.70;99.90;;;;;;4990187;28;19934;-69
2023/01/12 04:46:57;;;;;;;;;;;8.70;99.90;;;;;;4989505;28;19926;-69
2023/01/12 04:49:24;;;;;;;;;;;8.70;99.90;;;;;;4991703;28;19971;-68
2023/01/12 04:51:51;;;;;;;;;;;8.70;99.90;;;;;;4988958;28;19926;-68
2023/01/12 04:54:17;;;;;;;;;;;8.70;99.90;;;;;;4991339;28;20021;-69
2023/01/12 04:56:44;;;;;;;;;;;8.70;99.90;;;;;;4989019;28;20404;-69
2023/01/12 04:59:11;;;;;;;;;;;8.70;99.90;;;;;;4996313;28;20017;-69
2023/01/12 05:01:39;;;;;;;;;;;8.80;99.90;;;;;;4989226;28;20020;-68
2023/01/12 05:04:05;;;;;;;;;;;8.80;99.90;;;;;;4989657;28;19925;-69
2023/01/12 05:06:32;;;;;;;;;;;8.80;99.90;;;;;;4991332;28;20053;-68
2023/01/12 05:11:43;;;;;;;;;;;8.80;99.90;;;;;;4988466;28;19932;-69
2023/01/12 05:14:09;;;;;;;;;;;8.90;99.90;;;;;;4989713;28;20347;-68
2023/01/12 05:16:36;;;;;;;;;;;8.90;99.90;;;;;;4989188;28;19930;-69
2023/01/12 05:19:04;;;;;;;;;;;8.90;99.90;;;;;;4991923;28;19926;-68
2023/01/12 05:21:31;;;;;;;;;;;8.90;99.90;;;;;;4990887;28;19932;-69
2023/01/12 05:23:57;;;;;;;;;;;9.00;99.90;;;;;;4990030;28;20009;-69
2023/01/12 05:26:24;;;;;;;;;;;8.90;99.90;;;;;;4988024;28;20013;-69
2023/01/12 05:28:51;;;;;;;;;;;9.00;99.90;;;;;;4990968;28;19969;-70
2023/01/12 05:31:18;;;;;;;;;;;9.00;99.90;;;;;;4986020;28;19956;-69
2023/01/12 05:33:45;;;;;;;;;;;9.00;99.90;;;;;;4985453;28;19969;-69
2023/01/12 05:36:14;;;;;;;;;;;8.90;99.90;;;;;;4987109;28;20388;-69
2023/01/12 05:38:40;;;;;;;;;;;9.00;99.90;;;;;;4989590;28;19969;-69
2023/01/12 05:41:09;;;;;;;;;;;9.00;99.90;;;;;;4985383;28;19936;-70
2023/01/12 05:43:49;;;;;;;;;;;9.00;99.90;;;;;;4987896;28;19926;-69
2023/01/12 05:46:16;;;;;;;;;;;9.00;99.90;;;;;;4986143;28;19983;-69
2023/01/12 05:48:43;;;;;;;;;;;9.00;99.90;;;;;;4986568;28;19926;-69
2023/01/12 05:51:11;;;;;;;;;;;9.00;99.90;;;;;;4996248;28;19932;-69
2023/01/12 05:53:40;;;;;;;;;;;9.00;99.90;;;;;;5010484;28;20028;-69
2023/01/12 05:56:08;;;;;;;;;;;9.00;99.90;;;;;;4997123;28;19962;-69
2023/01/12 05:58:35;;;;;;;;;;;9.00;99.90;;;;;;4990494;28;20487;-69
2023/01/12 06:01:01;;;;;;;;;;;9.00;99.90;;;;;;4995582;28;20016;-69
2023/01/12 06:03:28;;;;;;;;;;;8.90;99.90;;;;;;4987672;28;20021;-68
2023/01/12 06:05:57;;;;;;;;;;;8.90;99.90;;;;;;4986488;28;20358;-69
2023/01/12 06:08:24;;;;;;;;;;;8.90;99.90;;;;;;4988869;28;19932;-69
2023/01/12 06:10:52;;;;;;;;;;;8.90;99.90;;;;;;4992812;28;20018;-69
2023/01/12 06:16:04;;;;;;;;;;;9.00;99.90;;;;;;4986595;28;20277;-70
2023/01/12 06:18:34;;;;;;;;;;;9.00;99.90;;;;;;4990503;28;20372;-70
2023/01/12 06:21:01;;;;;;;;;;;9.00;99.90;;;;;;4989343;28;19930;-69
2023/01/12 06:23:28;;;;;;;;;;;9.00;99.90;;;;;;4989846;28;19926;-69
2023/01/12 06:25:56;;;;;;;;;;;9.00;99.90;;;;;;4994394;28;19932;-69
2023/01/12 06:28:22;;;;;;;;;;;9.00;99.90;;;;;;4993642;28;20021;-69
2023/01/12 06:30:54;;;;;;;;;;;9.10;99.90;;;;;;4990511;28;19932;-69
2023/01/12 06:33:21;;;;;;;;;;;9.10;99.90;;;;;;4984189;28;20264;-69
2023/01/12 06:35:48;;;;;;;;;;;9.10;99.90;;;;;;4983955;28;19926;-69
2023/01/12 06:38:15;;;;;;;;;;;9.10;99.90;;;;;;4989125;28;20000;-69
2023/01/12 06:40:42;;;;;;;;;;;9.10;99.90;;;;;;4987204;28;20000;-69
2023/01/12 06:43:10;;;;;;;;;;;9.10;99.90;;;;;;4984950;28;19932;-68
2023/01/12 06:45:36;;;;;;;;;;;9.20;99.90;;;;;;4986422;28;20261;-68
2023/01/12 06:48:03;;;;;;;;;;;9.10;99.90;;;;;;4988204;28;19947;-69
2023/01/12 06:50:31;;;;;;;;;;;9.20;99.90;;;;;;4985500;28;19945;-69
2023/01/12 06:52:58;;;;;;;;;;;9.20;99.90;;;;;;4985771;28;19987;-69
2023/01/12 06:55:25;;;;;;;;;;;9.20;99.90;;;;;;4988674;28;20395;-68
2023/01/12 06:57:52;;;;;;;;;;;9.20;99.90;;;;;;4987431;28;19926;-69
2023/01/12 07:00:21;;;;;;;;;;;9.20;99.90;;;;;;4984274;28;20668;-67
2023/01/12 07:02:49;;;;;;;;;;;9.20;99.90;;;;;;4992665;28;19926;-70
2023/01/12 07:05:15;;;;;;;;;;;9.20;99.90;;;;;;4984430;28;19926;-70
2023/01/12 07:07:42;;;;;;;;;;;9.20;99.90;;;;;;4989337;28;19925;-70
2023/01/12 07:10:09;;;;;;;;;;;9.20;99.90;;;;;;4986544;28;22589;-71
2023/01/12 07:12:36;;;;;;;;;;;9.20;99.90;;;;;;4987224;28;20020;-70
2023/01/12 07:15:03;;;;;;;;;;;9.20;99.90;;;;;;4990640;28;19936;-70
2023/01/12 07:17:31;;;;;;;;;;;9.20;99.90;;;;;;4985234;28;20304;-69
2023/01/12 07:19:58;;;;;;;;;;;9.20;99.90;;;;;;4984400;28;20303;-71
2023/01/12 07:22:26;;;;;;;;;;;9.30;99.90;;;;;;4987614;28;20390;-70
2023/01/12 07:24:52;;;;;;;;;;;9.30;99.90;;;;;;4985876;28;19934;-69
2023/01/12 07:27:19;;;;;;;;;;;9.30;99.90;;;;;;4989251;28;19932;-68
2023/01/12 07:29:46;;;;;;;;;;;9.20;99.90;;;;;;4986625;28;19973;-68
2023/01/12 07:32:13;;;;;;;;;;;9.30;99.90;;;;;;4981180;28;19926;-70
2023/01/12 07:34:41;;;;;;;;;;;9.30;99.90;;;;;;4988405;28;19932;-70
2023/01/12 07:37:07;;;;;;;;;;;9.30;99.90;;;;;;4988434;28;19932;-69
2023/01/12 07:39:34;;;;;;;;;;;9.30;99.90;;;;;;4991065;28;19930;-69
2023/01/12 07:44:45;;;;;;;;;;;9.30;99.90;;;;;;4988873;28;19933;-69
2023/01/12 07:47:12;;;;;;;;;;;9.30;99.90;;;;;;4990949;28;20016;-69
2023/01/12 07:49:38;;;;;;;;;;;9.40;99.90;;;;;;4990990;28;19930;-68
2023/01/12 07:52:07;;;;;;;;;;;9.40;99.90;;;;;;4990895;28;19926;-69
2023/01/12 07:54:34;;;;;;;;;;;9.40;99.90;;;;;;4988489;28;20348;-69
2023/01/12 07:57:01;;;;;;;;;;;9.40;99.90;;;;;;4994410;28;19926;-69
2023/01/12 07:59:28;;;;;;;;;;;9.40;99.90;;;;;;4988873;28;20199;-69
2023/01/12 08:01:54;;;;;;;;;;;9.40;99.90;;;;;;4986916;28;20010;-69
2023/01/12 08:04:22;;;;;;;;;;;9.40;99.90;;;;;;4983741;28;19925;-68
2023/01/12 08:06:48;;;;;;;;;;;9.50;99.90;;;;;;4987250;28;19934;-68
2023/01/12 08:09:16;;;;;;;;;;;9.40;99.90;;;;;;4991641;28;19925;-67
2023/01/12 08:11:43;;;;;;;;;;;9.50;99.90;;;;;;4988087;28;19926;-69
2023/01/12 08:14:22;;;;;;;;;;;9.50;99.90;;;;;;4990475;28;19932;-69
2023/01/12 08:16:49;;;;;;;;;;;9.50;99.90;;;;;;4988494;28;19926;-70
2023/01/12 08:19:18;;;;;;;;;;;9.50;99.90;;;;;;4988111;28;20308;-69
2023/01/12 08:21:47;;;;;;;;;;;9.50;99.90;;;;;;4987532;28;19973;-69
2023/01/12 08:24:17;;;;;;;;;;;9.50;99.90;;;;;;5008456;28;19932;-69
2023/01/12 08:26:46;;;;;;;;;;;9.40;99.90;;;;;;4988772;28;19926;-70
2023/01/12 08:29:16;;;;;;;;;;;9.50;99.90;;;;;;4991162;28;20432;-71
2023/01/12 08:31:43;;;;;;;;;;;9.50;99.90;;;;;;4983111;28;19926;-71
2023/01/12 08:34:10;;;;;;;;;;;9.50;99.90;;;;;;4989462;28;19971;-71
2023/01/12 08:36:38;;;;;;;;;;;9.50;99.90;;;;;;4984732;28;19948;-71
2023/01/12 08:39:04;;;;;;;;;;;9.50;99.90;;;;;;4993682;28;19932;-71
2023/01/12 08:41:36;;;;;;;;;;;9.50;99.90;;;;;;4984851;28;20017;-70
2023/01/12 08:44:07;;;;;;;;;;;9.50;99.90;;;;;;4987970;28;20301;-69
2023/01/12 08:46:34;;;;;;;;;;;9.50;99.90;;;;;;4978986;28;20017;-69
2023/01/12 08:49:01;;;;;;;;;;;9.50;99.90;;;;;;4989926;28;19925;-69
2023/01/12 08:51:28;;;;;;;;;;;9.50;99.90;;;;;;4992913;28;20299;-72
2023/01/12 08:53:55;;;;;;;;;;;9.50;99.90;;;;;;4986251;28;19933;-71
2023/01/12 08:56:22;;;;;;;;;;;9.50;99.90;;;;;;4989014;28;19987;-71
2023/01/12 08:58:49;;;;;;;;;;;9.50;99.90;;;;;;4991246;28;20016;-71
2023/01/12 09:01:18;;;;;;;;;;;9.50;99.90;;;;;;4983974;28;19932;-71
2023/01/12 09:03:45;;;;;;;;;;;9.50;99.90;;;;;;4980731;28;20289;-71
2023/01/12 09:06:13;;;;;;;;;;;9.50;99.90;;;;;;4980264;28;20021;-71
2023/01/12 09:08:40;;;;;;;;;;;9.50;99.90;;;;;;4983903;28;19926;-71
2023/01/12 09:11:07;;;;;;;;;;;9.50;99.90;;;;;;4985543;28;19992;-70
2023/01/12 09:13:34;;;;;;;;;;;9.50;99.90;;;;;;4993496;28;19953;-68
2023/01/12 09:16:04;;;;;;;;;;;9.60;99.90;;;;;;4994713;28;19930;-71
2023/01/12 09:18:32;;;;;;;;;;;9.60;99.90;;;;;;4987750;28;19925;-71
2023/01/12 09:21:00;;;;;;;;;;;9.60;99.90;;;;;;4987399;28;19930;-70
2023/01/12 09:23:26;;;;;;;;;;;9.60;99.90;;;;;;4989420;28;19933;-70
2023/01/12 09:25:53;;;;;;;;;;;9.60;99.90;;;;;;4982029;28;19929;-71
2023/01/12 09:28:20;;;;;;;;;;;9.60;99.90;;;;;;4988115;28;20292;-71
2023/01/12 09:30:46;;;;;;;;;;;9.70;99.90;;;;;;4986559;28;19932;-71
2023/01/12 09:33:13;;;;;;;;;;;9.70;99.90;;;;;;4991334;28;19926;-72
2023/01/12 09:35:43;;;;;;;;;;;9.70;99.90;;;;;;4986210;28;19926;-71
2023/01/12 09:38:10;;;;;;;;;;;9.70;99.90;;;;;;4988155;28;19933;-71
2023/01/12 09:40:41;;;;;;;;;;;9.80;99.90;;;;;;4984023;28;20400;-72
2023/01/12 09:48:38;;;;;;;;;;;9.80;99.90;;;;;;4984816;28;19932;-72
2023/01/12 09:51:10;;;;;;;;;;;9.80;99.90;;;;;;4987873;28;19932;-71
2023/01/12 09:53:38;;;;;;;;;;;9.80;99.90;;;;;;4989205;28;20016;-72
2023/01/12 09:56:14;;;;;;;;;;;9.80;99.90;;;;;;4985880;28;20014;-71
2023/01/12 09:58:52;;;;;;;;;;;9.80;99.90;;;;;;4996826;28;20007;-72
2023/01/12 10:01:20;;;;;;;;;;;9.80;99.90;;;;;;4988459;28;19934;-71
2023/01/12 10:03:46;;;;;;;;;;;9.90;99.90;;;;;;4988400;28;19929;-72
2023/01/12 10:06:15;;;;;;;;;;;9.90;99.90;;;;;;4984834;28;19961;-72
2023/01/12 10:08:44;;;;;;;;;;;9.90;99.90;;;;;;4995452;28;19972;-72
2023/01/12 10:11:15;;;;;;;;;;;9.90;99.90;;;;;;4989115;28;19925;-70
2023/01/12 10:13:46;;;;;;;;;;;9.90;99.90;;;;;;4990000;28;20365;-71
2023/01/12 10:16:16;;;;;;;;;;;9.90;99.90;;;;;;4987588;28;20431;-71
2023/01/12 10:18:45;;;;;;;;;;;9.90;99.90;;;;;;4994151;28;19956;-69
2023/01/12 10:21:11;;;;;;;;;;;10.00;99.90;;;;;;4988214;28;19926;-71
2023/01/12 10:23:39;;;;;;;;;;;10.00;99.90;;;;;;4985003;28;19932;-71
2023/01/12 10:26:11;;;;;;;;;;;10.00;99.90;;;;;;4989350;28;19926;-71
2023/01/12 10:28:38;;;;;;;;;;;10.00;99.90;;;;;;4989063;28;20012;-71
2023/01/12 10:31:04;;;;;;;;;;;10.00;99.90;;;;;;4988239;28;19933;-71
2023/01/12 10:33:32;;;;;;;;;;;10.00;99.90;;;;;;4981978;28;19926;-71
2023/01/12 10:36:00;;;;;;;;;;;10.00;99.90;;;;;;4984248;28;20015;-71
2023/01/12 10:38:30;;;;;;;;;;;10.00;99.90;;;;;;4986883;28;20025;-71
2023/01/12 10:41:03;;;;;;;;;;;10.00;99.90;;;;;;4974968;28;20281;-71
2023/01/12 10:43:32;;;;;;;;;;;10.00;99.90;;;;;;4989760;28;19926;-71
2023/01/12 10:46:04;;;;;;;;;;;10.00;99.90;;;;;;4983590;28;19929;-69
2023/01/12 10:48:30;;;;;;;;;;;10.00;99.90;;;;;;4984683;28;19933;-70
2023/01/12 10:50:58;;;;;;;;;;;10.00;99.90;;;;;;4980564;28;20553;-69
2023/01/12 10:53:28;;;;;;;;;;;10.00;99.90;;;;;;4981387;28;20117;-70
2023/01/12 10:55:55;;;;;;;;;;;10.00;99.90;;;;;;4986311;28;20300;-70
2023/01/12 10:58:25;;;;;;;;;;;10.00;99.90;;;;;;4988771;28;19933;-71
2023/01/12 11:00:53;;;;;;;;;;;10.00;99.90;;;;;;4989261;28;19947;-72
2023/01/12 11:03:29;;;;;;;;;;;10.00;99.90;;;;;;4991977;28;20388;-71
2023/01/12 11:05:55;;;;;;;;;;;10.00;99.90;;;;;;4987202;28;19933;-71
2023/01/12 11:08:23;;;;;;;;;;;10.00;99.90;;;;;;4981657;28;20424;-72
2023/01/12 11:10:50;;;;;;;;;;;10.00;99.90;;;;;;4982287;28;20003;-71
2023/01/12 11:13:25;;;;;;;;;;;10.00;99.90;;;;;;4985519;28;20028;-71
2023/01/12 11:15:55;;;;;;;;;;;10.00;99.90;;;;;;4998548;28;19929;-72
2023/01/12 11:18:30;;;;;;;;;;;10.00;99.90;;;;;;4985751;28;20355;-71
2023/01/12 11:21:01;;;;;;;;;;;10.00;99.90;;;;;;4985927;28;20467;-72
2023/01/12 11:23:30;;;;;;;;;;;10.00;99.90;;;;;;4982602;28;20020;-71
2023/01/12 11:25:58;;;;;;;;;;;10.00;99.90;;;;;;4983413;28;20020;-72
2023/01/12 11:28:28;;;;;;;;;;;10.00;99.90;;;;;;4984240;28;19926;-72
2023/01/12 11:30:56;;;;;;;;;;;10.00;99.90;;;;;;4986788;28;19933;-71
2023/01/12 11:33:26;;;;;;;;;;;10.00;99.90;;;;;;4982702;28;19932;-71
2023/01/12 11:35:57;;;;;;;;;;;10.00;99.90;;;;;;4988518;28;20288;-71
2023/01/12 11:38:27;;;;;;;;;;;10.10;99.90;;;;;;4990351;28;20020;-70
2023/01/12 11:40:55;;;;;;;;;;;10.00;99.90;;;;;;4988239;28;19934;-70
2023/01/12 11:46:17;;;;;;;;;;;10.00;99.90;;;;;;4983526;28;20030;-72
2023/01/12 11:48:46;;;;;;;;;;;10.00;99.90;;;;;;4983735;28;19926;-70
2023/01/12 11:51:13;;;;;;;;;;;10.00;99.90;;;;;;4989829;28;19926;-69
2023/01/12 11:53:40;;;;;;;;;;;10.00;99.90;;;;;;4987362;28;19926;-70
2023/01/12 11:56:19;;;;;;;;;;;10.00;99.90;;;;;;4988118;28;19926;-70
2023/01/12 11:58:50;;;;;;;;;;;10.00;99.90;;;;;;4983207;28;20163;-70
2023/01/12 12:01:21;;;;;;;;;;;10.00;99.90;;;;;;4985170;28;19979;-69
2023/01/12 12:03:58;;;;;;;;;;;10.00;99.90;;;;;;4984390;28;19934;-69
2023/01/12 12:06:32;;;;;;;;;;;10.10;99.90;;;;;;4976109;28;19930;-69
2023/01/12 12:09:04;;;;;;;;;;;10.10;99.90;;;;;;4983755;28;20013;-70
2023/01/12 12:11:35;;;;;;;;;;;10.10;99.90;;;;;;4988140;28;19925;-70
2023/01/12 12:14:07;;;;;;;;;;;10.10;99.90;;;;;;4984824;28;19926;-70
2023/01/12 12:16:39;;;;;;;;;;;10.10;99.90;;;;;;4987198;28;20032;-70
2023/01/12 12:19:22;;;;;;;;;;;10.10;99.90;;;;;;4984288;28;20373;-70
2023/01/12 12:21:50;;;;;;;;;;;10.10;99.90;;;;;;4984373;28;20448;-70
2023/01/12 12:24:23;;;;;;;;;;;10.10;99.90;;;;;;4985563;28;19933;-70
2023/01/12 12:26:53;;;;;;;;;;;10.10;99.90;;;;;;4990147;28;19972;-70
2023/01/12 12:29:26;;;;;;;;;;;10.10;99.90;;;;;;4990131;28;20004;-71
2023/01/12 12:32:00;;;;;;;;;;;10.10;99.90;;;;;;4984118;28;19934;-72
2023/01/12 12:34:34;;;;;;;;;;;10.10;99.90;;;;;;4984117;28;19955;-71
2023/01/12 12:37:04;;;;;;;;;;;10.10;99.90;;;;;;4983828;28;19996;-72
2023/01/12 12:39:49;;;;;;;;;;;10.10;99.90;;;;;;4979274;28;19925;-71
2023/01/12 12:45:17;;;;;;;;;;;10.10;99.90;;;;;;4983449;28;19933;-70
2023/01/12 12:48:00;;;;;;;;;;;10.10;99.90;;;;;;4993899;28;19926;-71
2023/01/12 12:50:29;;;;;;;;;;;10.10;99.90;;;;;;4990928;28;19965;-71
2023/01/12 12:53:11;;;;;;;;;;;10.10;99.90;;;;;;4989458;28;19932;-71
2023/01/12 12:55:38;;;;;;;;;;;10.10;99.90;;;;;;4988075;28;20282;-71
2023/01/12 12:58:05;;;;;;;;;;;10.10;99.90;;;;;;4990258;28;19948;-72
2023/01/12 13:00:41;;;;;;;;;;;10.10;99.90;;;;;;4987212;28;19937;-71
2023/01/12 13:03:09;;;;;;;;;;;10.10;99.90;;;;;;4988837;28;19926;-71
2023/01/12 13:05:40;;;;;;;;;;;10.10;99.90;;;;;;4991295;28;20017;-70
2023/01/12 13:08:15;;;;;;;;;;;10.10;99.90;;;;;;4988098;28;19926;-70
2023/01/12 13:10:47;;;;;;;;;;;10.10;99.90;;;;;;4996389;28;19926;-70
2023/01/12 13:13:28;;;;;;;;;;;10.20;99.90;;;;;;4982261;28;19979;-70
2023/01/12 13:16:10;;;;;;;;;;;10.20;99.90;;;;;;4989394;28;20415;-68
2023/01/12 13:18:42;;;;;;;;;;;10.20;99.90;;;;;;4990603;28;19926;-68
2023/01/12 13:21:24;;;;;;;;;;;10.20;99.90;;;;;;4990340;28;19926;-69
2023/01/12 13:23:51;;;;;;;;;;;10.30;99.90;;;;;;4982781;28;19929;-69
2023/01/12 13:26:38;;;;;;;;;;;10.30;99.90;;;;;;4990524;28;19930;-68
2023/01/12 13:29:23;;;;;;;;;;;10.40;99.90;;;;;;4988777;28;19930;-70
2023/01/12 13:31:50;;;;;;;;;;;10.40;99.90;;;;;;4990327;28;20299;-71
2023/01/12 13:34:40;;;;;;;;;;;10.40;99.90;;;;;;4984069;28;19937;-71
2023/01/12 13:37:12;;;;;;;;;;;10.40;99.90;;;;;;5053680;28;19933;-71
2023/01/12 13:39:43;;;;;;;;;;;10.40;99.90;;;;;;4990046;28;20486;-71
2023/01/12 13:44:57;;;;;;;;;;;10.40;99.90;;;;;;4985461;28;20113;-71
2023/01/12 13:47:25;;;;;;;;;;;10.40;99.90;;;;;;4989281;28;19972;-71
2023/01/12 13:49:57;;;;;;;;;;;10.40;99.90;;;;;;4984545;28;20009;-71
2023/01/12 13:52:27;;;;;;;;;;;10.40;99.90;;;;;;4992916;28;20016;-71
2023/01/12 13:54:54;;;;;;;;;;;10.40;99.90;;;;;;4989666;28;19925;-71
2023/01/12 13:57:22;;;;;;;;;;;10.40;99.90;;;;;;4990743;28;19961;-71
2023/01/12 13:59:58;;;;;;;;;;;10.40;99.90;;;;;;4987356;28;19941;-70
2023/01/12 14:02:27;;;;;;;;;;;10.40;99.90;;;;;;4986295;28;20020;-71
2023/01/12 14:05:04;;;;;;;;;;;10.50;99.90;;;;;;4983992;28;19926;-71
2023/01/12 14:07:40;;;;;;;;;;;10.50;99.90;;;;;;4987725;28;19965;-71
2023/01/12 14:10:17;;;;;;;;;;;10.50;99.90;;;;;;4982601;28;20012;-71
2023/01/12 14:13:05;;;;;;;;;;;10.50;99.90;;;;;;4988814;28;20028;-69
2023/01/12 14:18:21;;;;;;;;;;;10.40;99.90;;;;;;4987875;28;19941;-71
2023/01/12 14:20:50;;;;;;;;;;;10.40;99.90;;;;;;4988841;28;19932;-69
2023/01/12 14:23:19;;;;;;;;;;;10.40;99.90;;;;;;4986703;28;19944;-71
2023/01/12 14:25:46;;;;;;;;;;;10.40;99.90;;;;;;4989969;28;19926;-72
2023/01/12 14:28:18;;;;;;;;;;;10.40;99.90;;;;;;4991203;28;20033;-71
2023/01/12 14:30:46;;;;;;;;;;;10.40;99.90;;;;;;4986338;28;19933;-67
2023/01/12 14:33:20;;;;;;;;;;;10.50;99.90;;;;;;4983230;28;19925;-67
2023/01/12 14:35:48;;;;;;;;;;;10.50;99.90;;;;;;4990290;28;19926;-67
2023/01/12 14:38:18;;;;;;;;;;;10.50;99.90;;;;;;4986962;28;19961;-66
2023/01/12 14:40:48;;;;;;;;;;;10.50;99.90;;;;;;4985405;28;20003;-66
2023/01/12 14:48:54;;;;;;;;;;;10.50;99.90;;;;;;4987676;28;19933;-66
2023/01/12 14:51:22;;;;;;;;;;;10.60;99.90;;;;;;4984338;28;20043;-66
2023/01/12 14:53:55;;;;;;;;;;;10.60;99.90;;;;;;4986488;28;19932;-67
2023/01/12 14:56:23;;;;;;;;;;;10.60;99.90;;;;;;4994807;28;19933;-72
2023/01/12 14:58:50;;;;;;;;;;;10.60;99.90;;;;;;4989687;28;22229;-71
2023/01/12 15:01:33;;;;;;;;;;;10.60;99.90;;;;;;4981827;28;19941;-72
2023/01/12 15:04:00;;;;;;;;;;;10.60;99.90;;;;;;4985350;28;19968;-71
2023/01/12 15:06:27;;;;;;;;;;;10.70;99.90;;;;;;4988665;28;19933;-71
2023/01/12 15:08:56;;;;;;;;;;;10.70;99.90;;;;;;4979145;28;20030;-72
2023/01/12 15:11:31;;;;;;;;;;;10.70;99.90;;;;;;4986868;28;19933;-72
2023/01/12 15:13:58;;;;;;;;;;;10.70;99.90;;;;;;4980483;28;19929;-71
2023/01/12 15:27:25;;;;;;;;;;;10.80;99.90;;;;;;4985572;28;19945;-72
2023/01/12 15:29:53;;;;;;;;;;;10.70;99.90;;;;;;4986695;28;19952;-72
2023/01/12 15:32:22;;;;;;;;;;;10.80;99.90;;;;;;4994430;28;19926;-73